<?xml version="1.0" encoding="UTF-8" standalone="no" ?>
<gpx xmlns="http://www.topografix.com/GPX/1/1" xmlns:xsi="http://www.w3.org/2001/XMLSchema-instance" xsi:schemaLocation="http://www.topografix.com/GPX/1/1 http://www.topografix.com/GPX/1/1/gpx.xsd" version="1.1" creator="VisuGPX - https://www.visugpx.com">
  <metadata>
    <name>suce_BoucleNordOuestBis_21km</name>
    <desc><![CDATA[gnerando idor: 5548821_9731105_9730670]]></desc>
  </metadata>
  <wpt lat="47.34259" lon="-1.53106">
    <ele>21.3</ele>
    <name><![CDATA[0001488]]></name>
    <type><![CDATA[Point de départ]]></type>
  </wpt>
  <wpt lat="47.34254" lon="-1.53112">
    <ele>21.1</ele>
    <name><![CDATA[0001489]]></name>
    <desc><![CDATA[<p><br /><h3>Nom: Segment: 1</h3><br />Heure de départ: 12/03/2023 14:02<br/>Heure d'arrivée: 12/03/2023 16:09<br/>Distance: 11,1km (02:07)<br/>Temps déplacement: 02:04<br/>Vitesse moyenne: 5,24 km/h<br/>Vitesse moyenne mouv.: 5,36 km/h<br/>Vitesse Max.: 8,1 km/h<br/>Altitude minimale: 3 m<br/>Altitude maximale: 38 m<br/>Vitesse de montée: 127 m/h<br/>Vitesse de descente: -156,2 m/h<br/>Gain d'altitude: 121 m<br/>Perte d'altitude: -121 m<br/>Temps de montée: 00:57<br/>Temps de descente: 00:46<br/></p>]]></desc>
    <type><![CDATA[Point d'arrivée]]></type>
  </wpt>
  <trk>
    <name><![CDATA[Grandchamps_MoulinsVar_12.7km-6608199]]></name>
    <extensions>
      <line xmlns="http://www.topografix.com/GPX/gpx_style/0/2">
        <color>ff8040</color>
        <width>4</width>
      </line>
    </extensions>
    <trkseg>
      <trkpt lat="47.36273" lon="-1.60488">
        <ele>34</ele>
        <time>2024-02-05T07:40:14Z</time>
      </trkpt>
      <trkpt lat="47.36254" lon="-1.60372">
        <ele>39</ele>
        <time>2024-02-05T07:42:02Z</time>
      </trkpt>
      <trkpt lat="47.36252" lon="-1.60316">
        <ele>40</ele>
        <time>2024-02-05T07:42:53Z</time>
      </trkpt>
      <trkpt lat="47.36249" lon="-1.60306">
        <ele>41</ele>
        <time>2024-02-05T07:43:02Z</time>
      </trkpt>
      <trkpt lat="47.36238" lon="-1.60297">
        <ele>42</ele>
        <time>2024-02-05T07:43:19Z</time>
      </trkpt>
      <trkpt lat="47.36205" lon="-1.60299">
        <ele>43</ele>
        <time>2024-02-05T07:44:03Z</time>
      </trkpt>
      <trkpt lat="47.36201" lon="-1.60294">
        <ele>44</ele>
        <time>2024-02-05T07:44:10Z</time>
      </trkpt>
      <trkpt lat="47.36199" lon="-1.60251">
        <ele>45</ele>
        <time>2024-02-05T07:44:49Z</time>
      </trkpt>
      <trkpt lat="47.36195" lon="-1.60231">
        <ele>45</ele>
        <time>2024-02-05T07:45:08Z</time>
      </trkpt>
      <trkpt lat="47.36195" lon="-1.60166">
        <ele>46</ele>
        <time>2024-02-05T07:46:07Z</time>
      </trkpt>
      <trkpt lat="47.36187" lon="-1.60145">
        <ele>46</ele>
        <time>2024-02-05T07:46:29Z</time>
      </trkpt>
      <trkpt lat="47.36174" lon="-1.60143">
        <ele>47</ele>
        <time>2024-02-05T07:46:46Z</time>
      </trkpt>
      <trkpt lat="47.36104" lon="-1.60144">
        <ele>49</ele>
        <time>2024-02-05T07:48:20Z</time>
      </trkpt>
      <trkpt lat="47.36099" lon="-1.6014">
        <ele>49</ele>
        <time>2024-02-05T07:48:27Z</time>
      </trkpt>
      <trkpt lat="47.36086" lon="-1.60093">
        <ele>49</ele>
        <time>2024-02-05T07:49:13Z</time>
      </trkpt>
      <trkpt lat="47.3608" lon="-1.60006">
        <ele>50</ele>
        <time>2024-02-05T07:50:32Z</time>
      </trkpt>
      <trkpt lat="47.36102" lon="-1.59921">
        <ele>48</ele>
        <time>2024-02-05T07:51:54Z</time>
      </trkpt>
      <trkpt lat="47.36127" lon="-1.59843">
        <ele>47</ele>
        <time>2024-02-05T07:53:12Z</time>
      </trkpt>
      <trkpt lat="47.36156" lon="-1.59763">
        <ele>45</ele>
        <time>2024-02-05T07:54:34Z</time>
      </trkpt>
      <trkpt lat="47.36167" lon="-1.5975">
        <ele>45</ele>
        <time>2024-02-05T07:54:53Z</time>
      </trkpt>
      <trkpt lat="47.36229" lon="-1.59711">
        <ele>42</ele>
        <time>2024-02-05T07:56:23Z</time>
      </trkpt>
      <trkpt lat="47.36234" lon="-1.59705">
        <ele>42</ele>
        <time>2024-02-05T07:56:32Z</time>
      </trkpt>
      <trkpt lat="47.36264" lon="-1.59685">
        <ele>42</ele>
        <time>2024-02-05T07:57:16Z</time>
      </trkpt>
      <trkpt lat="47.36307" lon="-1.59648">
        <ele>40</ele>
        <time>2024-02-05T07:58:22Z</time>
      </trkpt>
      <trkpt lat="47.36313" lon="-1.59647">
        <ele>40</ele>
        <time>2024-02-05T07:58:30Z</time>
      </trkpt>
      <trkpt lat="47.36336" lon="-1.59653">
        <ele>40</ele>
        <time>2024-02-05T07:59:01Z</time>
      </trkpt>
      <trkpt lat="47.36406" lon="-1.5962">
        <ele>37</ele>
        <time>2024-02-05T08:00:39Z</time>
      </trkpt>
      <trkpt lat="47.36441" lon="-1.59598">
        <ele>35</ele>
        <time>2024-02-05T08:01:30Z</time>
      </trkpt>
      <trkpt lat="47.36443" lon="-1.596">
        <ele>35</ele>
        <time>2024-02-05T08:01:33Z</time>
      </trkpt>
      <trkpt lat="47.36441" lon="-1.59603">
        <ele>35</ele>
        <time>2024-02-05T08:01:37Z</time>
      </trkpt>
      <trkpt lat="47.36442" lon="-1.59601">
        <ele>35</ele>
        <time>2024-02-05T08:01:39Z</time>
      </trkpt>
      <trkpt lat="47.36443" lon="-1.59604">
        <ele>35</ele>
        <time>2024-02-05T08:01:42Z</time>
      </trkpt>
      <trkpt lat="47.3646" lon="-1.5959">
        <ele>34</ele>
        <time>2024-02-05T08:02:08Z</time>
      </trkpt>
      <trkpt lat="47.36532" lon="-1.59552">
        <ele>30</ele>
        <time>2024-02-05T08:03:50Z</time>
      </trkpt>
      <trkpt lat="47.36538" lon="-1.59551">
        <ele>30</ele>
        <time>2024-02-05T08:03:58Z</time>
      </trkpt>
      <trkpt lat="47.36546" lon="-1.59555">
        <ele>30</ele>
        <time>2024-02-05T08:04:10Z</time>
      </trkpt>
      <trkpt lat="47.3655" lon="-1.59586">
        <ele>31</ele>
        <time>2024-02-05T08:04:38Z</time>
      </trkpt>
      <trkpt lat="47.36548" lon="-1.59597">
        <ele>31</ele>
        <time>2024-02-05T08:04:48Z</time>
      </trkpt>
      <trkpt lat="47.3655" lon="-1.59627">
        <ele>31</ele>
        <time>2024-02-05T08:05:16Z</time>
      </trkpt>
      <trkpt lat="47.36559" lon="-1.59696">
        <ele>32</ele>
        <time>2024-02-05T08:06:19Z</time>
      </trkpt>
      <trkpt lat="47.36568" lon="-1.59735">
        <ele>33</ele>
        <time>2024-02-05T08:06:56Z</time>
      </trkpt>
      <trkpt lat="47.36592" lon="-1.5981">
        <ele>34</ele>
        <time>2024-02-05T08:08:11Z</time>
      </trkpt>
      <trkpt lat="47.36597" lon="-1.59839">
        <ele>35</ele>
        <time>2024-02-05T08:08:39Z</time>
      </trkpt>
      <trkpt lat="47.36597" lon="-1.59869">
        <ele>34</ele>
        <time>2024-02-05T08:09:06Z</time>
      </trkpt>
      <trkpt lat="47.36594" lon="-1.59918">
        <ele>33</ele>
        <time>2024-02-05T08:09:50Z</time>
      </trkpt>
      <trkpt lat="47.36587" lon="-1.59944">
        <ele>33</ele>
        <time>2024-02-05T08:10:15Z</time>
      </trkpt>
      <trkpt lat="47.36583" lon="-1.59972">
        <ele>32</ele>
        <time>2024-02-05T08:10:41Z</time>
      </trkpt>
      <trkpt lat="47.36575" lon="-1.59991">
        <ele>32</ele>
        <time>2024-02-05T08:11:01Z</time>
      </trkpt>
      <trkpt lat="47.36571" lon="-1.60026">
        <ele>31</ele>
        <time>2024-02-05T08:11:34Z</time>
      </trkpt>
      <trkpt lat="47.36544" lon="-1.60122">
        <ele>34</ele>
        <time>2024-02-05T08:13:08Z</time>
      </trkpt>
      <trkpt lat="47.36536" lon="-1.60159">
        <ele>36</ele>
        <time>2024-02-05T08:13:43Z</time>
      </trkpt>
      <trkpt lat="47.36521" lon="-1.60281">
        <ele>35</ele>
        <time>2024-02-05T08:15:35Z</time>
      </trkpt>
      <trkpt lat="47.3652" lon="-1.60317">
        <ele>34</ele>
        <time>2024-02-05T08:16:07Z</time>
      </trkpt>
      <trkpt lat="47.3656" lon="-1.60351">
        <ele>31</ele>
        <time>2024-02-05T08:17:09Z</time>
      </trkpt>
      <trkpt lat="47.36574" lon="-1.60359">
        <ele>31</ele>
        <time>2024-02-05T08:17:29Z</time>
      </trkpt>
      <trkpt lat="47.36586" lon="-1.60362">
        <ele>30</ele>
        <time>2024-02-05T08:17:45Z</time>
      </trkpt>
      <trkpt lat="47.36666" lon="-1.60396">
        <ele>26</ele>
        <time>2024-02-05T08:19:36Z</time>
      </trkpt>
      <trkpt lat="47.36682" lon="-1.60395">
        <ele>26</ele>
        <time>2024-02-05T08:19:58Z</time>
      </trkpt>
      <trkpt lat="47.36695" lon="-1.60399">
        <ele>26</ele>
        <time>2024-02-05T08:20:15Z</time>
      </trkpt>
      <trkpt lat="47.36707" lon="-1.60397">
        <ele>26</ele>
        <time>2024-02-05T08:20:31Z</time>
      </trkpt>
      <trkpt lat="47.36716" lon="-1.60386">
        <ele>26</ele>
        <time>2024-02-05T08:20:47Z</time>
      </trkpt>
      <trkpt lat="47.36719" lon="-1.60361">
        <ele>25</ele>
        <time>2024-02-05T08:21:10Z</time>
      </trkpt>
      <trkpt lat="47.36737" lon="-1.60302">
        <ele>24</ele>
        <time>2024-02-05T08:22:08Z</time>
      </trkpt>
      <trkpt lat="47.36745" lon="-1.60267">
        <ele>24</ele>
        <time>2024-02-05T08:22:42Z</time>
      </trkpt>
      <trkpt lat="47.36771" lon="-1.60134">
        <ele>25</ele>
        <time>2024-02-05T08:24:47Z</time>
      </trkpt>
      <trkpt lat="47.36781" lon="-1.6011">
        <ele>25</ele>
        <time>2024-02-05T08:25:12Z</time>
      </trkpt>
      <trkpt lat="47.36791" lon="-1.601">
        <ele>25</ele>
        <time>2024-02-05T08:25:29Z</time>
      </trkpt>
      <trkpt lat="47.36802" lon="-1.60094">
        <ele>26</ele>
        <time>2024-02-05T08:25:44Z</time>
      </trkpt>
      <trkpt lat="47.36814" lon="-1.60093">
        <ele>26</ele>
        <time>2024-02-05T08:26:00Z</time>
      </trkpt>
      <trkpt lat="47.36819" lon="-1.60095">
        <ele>26</ele>
        <time>2024-02-05T08:26:07Z</time>
      </trkpt>
      <trkpt lat="47.36848" lon="-1.60113">
        <ele>28</ele>
        <time>2024-02-05T08:26:49Z</time>
      </trkpt>
      <trkpt lat="47.36852" lon="-1.60146">
        <ele>28</ele>
        <time>2024-02-05T08:27:19Z</time>
      </trkpt>
      <trkpt lat="47.36874" lon="-1.60148">
        <ele>29</ele>
        <time>2024-02-05T08:27:49Z</time>
      </trkpt>
      <trkpt lat="47.36879" lon="-1.60151">
        <ele>30</ele>
        <time>2024-02-05T08:27:56Z</time>
      </trkpt>
      <trkpt lat="47.36892" lon="-1.60168">
        <ele>31</ele>
        <time>2024-02-05T08:28:19Z</time>
      </trkpt>
      <trkpt lat="47.36915" lon="-1.60185">
        <ele>32</ele>
        <time>2024-02-05T08:28:54Z</time>
      </trkpt>
      <trkpt lat="47.36964" lon="-1.60202">
        <ele>34</ele>
        <time>2024-02-05T08:30:01Z</time>
      </trkpt>
      <trkpt lat="47.3697" lon="-1.60206">
        <ele>35</ele>
        <time>2024-02-05T08:30:09Z</time>
      </trkpt>
      <trkpt lat="47.36975" lon="-1.60221">
        <ele>35</ele>
        <time>2024-02-05T08:30:25Z</time>
      </trkpt>
      <trkpt lat="47.36975" lon="-1.60246">
        <ele>35</ele>
        <time>2024-02-05T08:30:47Z</time>
      </trkpt>
      <trkpt lat="47.36979" lon="-1.60271">
        <ele>35</ele>
        <time>2024-02-05T08:31:10Z</time>
      </trkpt>
      <trkpt lat="47.36982" lon="-1.60274">
        <ele>35</ele>
        <time>2024-02-05T08:31:15Z</time>
      </trkpt>
      <trkpt lat="47.36993" lon="-1.60266">
        <ele>35</ele>
        <time>2024-02-05T08:31:32Z</time>
      </trkpt>
      <trkpt lat="47.37013" lon="-1.60262">
        <ele>36</ele>
        <time>2024-02-05T08:31:59Z</time>
      </trkpt>
      <trkpt lat="47.37023" lon="-1.60263">
        <ele>36</ele>
        <time>2024-02-05T08:32:12Z</time>
      </trkpt>
      <trkpt lat="47.37027" lon="-1.60261">
        <ele>36</ele>
        <time>2024-02-05T08:32:18Z</time>
      </trkpt>
      <trkpt lat="47.37048" lon="-1.6026">
        <ele>37</ele>
        <time>2024-02-05T08:32:46Z</time>
      </trkpt>
      <trkpt lat="47.37059" lon="-1.60256">
        <ele>37</ele>
        <time>2024-02-05T08:33:01Z</time>
      </trkpt>
      <trkpt lat="47.37076" lon="-1.60245">
        <ele>38</ele>
        <time>2024-02-05T08:33:25Z</time>
      </trkpt>
      <trkpt lat="47.37132" lon="-1.6022">
        <ele>37</ele>
        <time>2024-02-05T08:34:44Z</time>
      </trkpt>
      <trkpt lat="47.3716" lon="-1.60204">
        <ele>37</ele>
        <time>2024-02-05T08:35:24Z</time>
      </trkpt>
      <trkpt lat="47.37165" lon="-1.60199">
        <ele>37</ele>
        <time>2024-02-05T08:35:32Z</time>
      </trkpt>
      <trkpt lat="47.37177" lon="-1.60196">
        <ele>37</ele>
        <time>2024-02-05T08:35:48Z</time>
      </trkpt>
      <trkpt lat="47.37198" lon="-1.60186">
        <ele>36</ele>
        <time>2024-02-05T08:36:17Z</time>
      </trkpt>
      <trkpt lat="47.37203" lon="-1.60181">
        <ele>36</ele>
        <time>2024-02-05T08:36:25Z</time>
      </trkpt>
      <trkpt lat="47.37227" lon="-1.6017">
        <ele>36</ele>
        <time>2024-02-05T08:36:59Z</time>
      </trkpt>
      <trkpt lat="47.37252" lon="-1.60152">
        <ele>36</ele>
        <time>2024-02-05T08:37:36Z</time>
      </trkpt>
      <trkpt lat="47.37301" lon="-1.60131">
        <ele>35</ele>
        <time>2024-02-05T08:38:44Z</time>
      </trkpt>
      <trkpt lat="47.3736" lon="-1.60101">
        <ele>34</ele>
        <time>2024-02-05T08:40:07Z</time>
      </trkpt>
      <trkpt lat="47.3738" lon="-1.60094">
        <ele>35</ele>
        <time>2024-02-05T08:40:35Z</time>
      </trkpt>
      <trkpt lat="47.37391" lon="-1.60087">
        <ele>35</ele>
        <time>2024-02-05T08:40:51Z</time>
      </trkpt>
      <trkpt lat="47.37396" lon="-1.60086">
        <ele>35</ele>
        <time>2024-02-05T08:40:58Z</time>
      </trkpt>
      <trkpt lat="47.37397" lon="-1.60088">
        <ele>35</ele>
        <time>2024-02-05T08:41:00Z</time>
      </trkpt>
      <trkpt lat="47.37422" lon="-1.60074">
        <ele>35</ele>
        <time>2024-02-05T08:41:35Z</time>
      </trkpt>
      <trkpt lat="47.3743" lon="-1.60076">
        <ele>35</ele>
        <time>2024-02-05T08:41:46Z</time>
      </trkpt>
      <trkpt lat="47.37437" lon="-1.6007">
        <ele>35</ele>
        <time>2024-02-05T08:41:57Z</time>
      </trkpt>
      <trkpt lat="47.37467" lon="-1.60056">
        <ele>35</ele>
        <time>2024-02-05T08:42:39Z</time>
      </trkpt>
      <trkpt lat="47.37536" lon="-1.60034">
        <ele>35</ele>
        <time>2024-02-05T08:44:13Z</time>
      </trkpt>
      <trkpt lat="47.37556" lon="-1.60022">
        <ele>36</ele>
        <time>2024-02-05T08:44:42Z</time>
      </trkpt>
      <trkpt lat="47.37568" lon="-1.60013">
        <ele>36</ele>
        <time>2024-02-05T08:45:00Z</time>
      </trkpt>
      <trkpt lat="47.37621" lon="-1.59959">
        <ele>37</ele>
        <time>2024-02-05T08:46:26Z</time>
      </trkpt>
      <trkpt lat="47.37655" lon="-1.5992">
        <ele>36</ele>
        <time>2024-02-05T08:47:23Z</time>
      </trkpt>
      <trkpt lat="47.37711" lon="-1.59844">
        <ele>37</ele>
        <time>2024-02-05T08:49:05Z</time>
      </trkpt>
      <trkpt lat="47.37743" lon="-1.59799">
        <ele>38</ele>
        <time>2024-02-05T08:50:04Z</time>
      </trkpt>
      <trkpt lat="47.37752" lon="-1.59781">
        <ele>37</ele>
        <time>2024-02-05T08:50:24Z</time>
      </trkpt>
      <trkpt lat="47.37766" lon="-1.59764">
        <ele>37</ele>
        <time>2024-02-05T08:50:48Z</time>
      </trkpt>
      <trkpt lat="47.37783" lon="-1.59763">
        <ele>37</ele>
        <time>2024-02-05T08:51:11Z</time>
      </trkpt>
      <trkpt lat="47.37872" lon="-1.59748">
        <ele>37</ele>
        <time>2024-02-05T08:53:11Z</time>
      </trkpt>
      <trkpt lat="47.37885" lon="-1.59749">
        <ele>36</ele>
        <time>2024-02-05T08:53:28Z</time>
      </trkpt>
      <trkpt lat="47.37917" lon="-1.59746">
        <ele>36</ele>
        <time>2024-02-05T08:54:11Z</time>
      </trkpt>
      <trkpt lat="47.37929" lon="-1.59742">
        <ele>36</ele>
        <time>2024-02-05T08:54:27Z</time>
      </trkpt>
      <trkpt lat="47.37939" lon="-1.59732">
        <ele>35</ele>
        <time>2024-02-05T08:54:43Z</time>
      </trkpt>
      <trkpt lat="47.37946" lon="-1.59707">
        <ele>35</ele>
        <time>2024-02-05T08:55:08Z</time>
      </trkpt>
      <trkpt lat="47.37947" lon="-1.5966">
        <ele>34</ele>
        <time>2024-02-05T08:55:50Z</time>
      </trkpt>
      <trkpt lat="47.3795" lon="-1.59634">
        <ele>35</ele>
        <time>2024-02-05T08:56:14Z</time>
      </trkpt>
      <trkpt lat="47.37959" lon="-1.59598">
        <ele>35</ele>
        <time>2024-02-05T08:56:49Z</time>
      </trkpt>
      <trkpt lat="47.37969" lon="-1.59585">
        <ele>36</ele>
        <time>2024-02-05T08:57:06Z</time>
      </trkpt>
      <trkpt lat="47.37996" lon="-1.5956">
        <ele>36</ele>
        <time>2024-02-05T08:57:49Z</time>
      </trkpt>
      <trkpt lat="47.38079" lon="-1.59488">
        <ele>35</ele>
        <time>2024-02-05T08:59:57Z</time>
      </trkpt>
      <trkpt lat="47.38086" lon="-1.59475">
        <ele>36</ele>
        <time>2024-02-05T09:00:12Z</time>
      </trkpt>
      <trkpt lat="47.38077" lon="-1.59416">
        <ele>37</ele>
        <time>2024-02-05T09:01:07Z</time>
      </trkpt>
      <trkpt lat="47.38068" lon="-1.59388">
        <ele>37</ele>
        <time>2024-02-05T09:01:35Z</time>
      </trkpt>
      <trkpt lat="47.3805" lon="-1.59344">
        <ele>37</ele>
        <time>2024-02-05T09:02:22Z</time>
      </trkpt>
      <trkpt lat="47.38017" lon="-1.59287">
        <ele>38</ele>
        <time>2024-02-05T09:03:29Z</time>
      </trkpt>
      <trkpt lat="47.38009" lon="-1.59265">
        <ele>39</ele>
        <time>2024-02-05T09:03:52Z</time>
      </trkpt>
      <trkpt lat="47.37987" lon="-1.59143">
        <ele>38</ele>
        <time>2024-02-05T09:05:46Z</time>
      </trkpt>
      <trkpt lat="47.37965" lon="-1.59048">
        <ele>38</ele>
        <time>2024-02-05T09:07:17Z</time>
      </trkpt>
      <trkpt lat="47.37957" lon="-1.59024">
        <ele>38</ele>
        <time>2024-02-05T09:07:41Z</time>
      </trkpt>
      <trkpt lat="47.37936" lon="-1.58979">
        <ele>37</ele>
        <time>2024-02-05T09:08:30Z</time>
      </trkpt>
      <trkpt lat="47.37903" lon="-1.58869">
        <ele>37</ele>
        <time>2024-02-05T09:10:19Z</time>
      </trkpt>
      <trkpt lat="47.37885" lon="-1.5882">
        <ele>37</ele>
        <time>2024-02-05T09:11:09Z</time>
      </trkpt>
      <trkpt lat="47.37884" lon="-1.58796">
        <ele>37</ele>
        <time>2024-02-05T09:11:31Z</time>
      </trkpt>
      <trkpt lat="47.37874" lon="-1.58776">
        <ele>37</ele>
        <time>2024-02-05T09:11:54Z</time>
      </trkpt>
      <trkpt lat="47.37872" lon="-1.58776">
        <ele>37</ele>
        <time>2024-02-05T09:11:56Z</time>
      </trkpt>
      <trkpt lat="47.37865" lon="-1.58764">
        <ele>37</ele>
        <time>2024-02-05T09:12:11Z</time>
      </trkpt>
      <trkpt lat="47.37829" lon="-1.5869">
        <ele>36</ele>
        <time>2024-02-05T09:13:33Z</time>
      </trkpt>
      <trkpt lat="47.37794" lon="-1.58645">
        <ele>35</ele>
        <time>2024-02-05T09:14:35Z</time>
      </trkpt>
      <trkpt lat="47.3779" lon="-1.58631">
        <ele>35</ele>
        <time>2024-02-05T09:14:49Z</time>
      </trkpt>
      <trkpt lat="47.37759" lon="-1.58591">
        <ele>34</ele>
        <time>2024-02-05T09:15:43Z</time>
      </trkpt>
      <trkpt lat="47.37732" lon="-1.58549">
        <ele>34</ele>
        <time>2024-02-05T09:16:36Z</time>
      </trkpt>
      <trkpt lat="47.37716" lon="-1.58519">
        <ele>34</ele>
        <time>2024-02-05T09:17:10Z</time>
      </trkpt>
      <trkpt lat="47.3768" lon="-1.58472">
        <ele>33</ele>
        <time>2024-02-05T09:18:14Z</time>
      </trkpt>
      <trkpt lat="47.37679" lon="-1.58468">
        <ele>33</ele>
        <time>2024-02-05T09:18:18Z</time>
      </trkpt>
      <trkpt lat="47.37679" lon="-1.5847">
        <ele>33</ele>
        <time>2024-02-05T09:18:20Z</time>
      </trkpt>
      <trkpt lat="47.37679" lon="-1.58468">
        <ele>33</ele>
        <time>2024-02-05T09:18:22Z</time>
      </trkpt>
      <trkpt lat="47.3768" lon="-1.5847">
        <ele>33</ele>
        <time>2024-02-05T09:18:24Z</time>
      </trkpt>
      <trkpt lat="47.37682" lon="-1.58469">
        <ele>33</ele>
        <time>2024-02-05T09:18:27Z</time>
      </trkpt>
      <trkpt lat="47.37676" lon="-1.58465">
        <ele>33</ele>
        <time>2024-02-05T09:18:36Z</time>
      </trkpt>
      <trkpt lat="47.37599" lon="-1.58374">
        <ele>32</ele>
        <time>2024-02-05T09:20:47Z</time>
      </trkpt>
      <trkpt lat="47.37584" lon="-1.58351">
        <ele>32</ele>
        <time>2024-02-05T09:21:16Z</time>
      </trkpt>
      <trkpt lat="47.37572" lon="-1.58339">
        <ele>32</ele>
        <time>2024-02-05T09:21:36Z</time>
      </trkpt>
      <trkpt lat="47.37511" lon="-1.58257">
        <ele>30</ele>
        <time>2024-02-05T09:23:26Z</time>
      </trkpt>
      <trkpt lat="47.3748" lon="-1.5827">
        <ele>30</ele>
        <time>2024-02-05T09:24:09Z</time>
      </trkpt>
      <trkpt lat="47.37466" lon="-1.58282">
        <ele>29</ele>
        <time>2024-02-05T09:24:30Z</time>
      </trkpt>
      <trkpt lat="47.37455" lon="-1.58288">
        <ele>29</ele>
        <time>2024-02-05T09:24:46Z</time>
      </trkpt>
      <trkpt lat="47.37437" lon="-1.58293">
        <ele>29</ele>
        <time>2024-02-05T09:25:10Z</time>
      </trkpt>
      <trkpt lat="47.37393" lon="-1.58315">
        <ele>29</ele>
        <time>2024-02-05T09:26:12Z</time>
      </trkpt>
      <trkpt lat="47.37379" lon="-1.58325">
        <ele>29</ele>
        <time>2024-02-05T09:26:33Z</time>
      </trkpt>
      <trkpt lat="47.37361" lon="-1.58332">
        <ele>29</ele>
        <time>2024-02-05T09:26:58Z</time>
      </trkpt>
      <trkpt lat="47.37321" lon="-1.58357">
        <ele>29</ele>
        <time>2024-02-05T09:27:56Z</time>
      </trkpt>
      <trkpt lat="47.37291" lon="-1.58372">
        <ele>29</ele>
        <time>2024-02-05T09:28:38Z</time>
      </trkpt>
      <trkpt lat="47.37281" lon="-1.58387">
        <ele>30</ele>
        <time>2024-02-05T09:28:57Z</time>
      </trkpt>
      <trkpt lat="47.37272" lon="-1.58392">
        <ele>30</ele>
        <time>2024-02-05T09:29:10Z</time>
      </trkpt>
      <trkpt lat="47.37217" lon="-1.5841">
        <ele>31</ele>
        <time>2024-02-05T09:30:25Z</time>
      </trkpt>
      <trkpt lat="47.3721" lon="-1.58417">
        <ele>31</ele>
        <time>2024-02-05T09:30:36Z</time>
      </trkpt>
      <trkpt lat="47.37166" lon="-1.58426">
        <ele>32</ele>
        <time>2024-02-05T09:31:36Z</time>
      </trkpt>
      <trkpt lat="47.37151" lon="-1.58434">
        <ele>33</ele>
        <time>2024-02-05T09:31:57Z</time>
      </trkpt>
      <trkpt lat="47.37127" lon="-1.58436">
        <ele>34</ele>
        <time>2024-02-05T09:32:29Z</time>
      </trkpt>
      <trkpt lat="47.37081" lon="-1.58467">
        <ele>36</ele>
        <time>2024-02-05T09:33:37Z</time>
      </trkpt>
      <trkpt lat="47.37011" lon="-1.58504">
        <ele>37</ele>
        <time>2024-02-05T09:35:16Z</time>
      </trkpt>
      <trkpt lat="47.36995" lon="-1.58515">
        <ele>37</ele>
        <time>2024-02-05T09:35:39Z</time>
      </trkpt>
      <trkpt lat="47.3698" lon="-1.58521">
        <ele>37</ele>
        <time>2024-02-05T09:36:00Z</time>
      </trkpt>
      <trkpt lat="47.36959" lon="-1.58536">
        <ele>38</ele>
        <time>2024-02-05T09:36:31Z</time>
      </trkpt>
      <trkpt lat="47.36929" lon="-1.58563">
        <ele>39</ele>
        <time>2024-02-05T09:37:18Z</time>
      </trkpt>
      <trkpt lat="47.369" lon="-1.58582">
        <ele>39</ele>
        <time>2024-02-05T09:38:00Z</time>
      </trkpt>
      <trkpt lat="47.36893" lon="-1.58589">
        <ele>39</ele>
        <time>2024-02-05T09:38:12Z</time>
      </trkpt>
      <trkpt lat="47.36849" lon="-1.58673">
        <ele>40</ele>
        <time>2024-02-05T09:39:48Z</time>
      </trkpt>
      <trkpt lat="47.36807" lon="-1.58693">
        <ele>38</ele>
        <time>2024-02-05T09:40:47Z</time>
      </trkpt>
      <trkpt lat="47.36792" lon="-1.58703">
        <ele>38</ele>
        <time>2024-02-05T09:41:09Z</time>
      </trkpt>
      <trkpt lat="47.36766" lon="-1.5873">
        <ele>36</ele>
        <time>2024-02-05T09:41:51Z</time>
      </trkpt>
      <trkpt lat="47.36752" lon="-1.58753">
        <ele>35</ele>
        <time>2024-02-05T09:42:19Z</time>
      </trkpt>
      <trkpt lat="47.3674" lon="-1.58783">
        <ele>34</ele>
        <time>2024-02-05T09:42:50Z</time>
      </trkpt>
      <trkpt lat="47.3672" lon="-1.58822">
        <ele>34</ele>
        <time>2024-02-05T09:43:35Z</time>
      </trkpt>
      <trkpt lat="47.36707" lon="-1.58843">
        <ele>33</ele>
        <time>2024-02-05T09:44:00Z</time>
      </trkpt>
      <trkpt lat="47.36699" lon="-1.58848">
        <ele>33</ele>
        <time>2024-02-05T09:44:12Z</time>
      </trkpt>
      <trkpt lat="47.36678" lon="-1.58851">
        <ele>33</ele>
        <time>2024-02-05T09:44:40Z</time>
      </trkpt>
      <trkpt lat="47.36668" lon="-1.58848">
        <ele>33</ele>
        <time>2024-02-05T09:44:54Z</time>
      </trkpt>
      <trkpt lat="47.36642" lon="-1.58831">
        <ele>33</ele>
        <time>2024-02-05T09:45:32Z</time>
      </trkpt>
      <trkpt lat="47.36622" lon="-1.58816">
        <ele>33</ele>
        <time>2024-02-05T09:46:02Z</time>
      </trkpt>
      <trkpt lat="47.36612" lon="-1.58804">
        <ele>34</ele>
        <time>2024-02-05T09:46:19Z</time>
      </trkpt>
      <trkpt lat="47.36592" lon="-1.58791">
        <ele>34</ele>
        <time>2024-02-05T09:46:48Z</time>
      </trkpt>
      <trkpt lat="47.36581" lon="-1.58779">
        <ele>35</ele>
        <time>2024-02-05T09:47:06Z</time>
      </trkpt>
      <trkpt lat="47.36575" lon="-1.58776">
        <ele>35</ele>
        <time>2024-02-05T09:47:15Z</time>
      </trkpt>
      <trkpt lat="47.36567" lon="-1.58763">
        <ele>35</ele>
        <time>2024-02-05T09:47:31Z</time>
      </trkpt>
      <trkpt lat="47.36556" lon="-1.58743">
        <ele>35</ele>
        <time>2024-02-05T09:47:54Z</time>
      </trkpt>
      <trkpt lat="47.36539" lon="-1.58703">
        <ele>36</ele>
        <time>2024-02-05T09:48:36Z</time>
      </trkpt>
      <trkpt lat="47.3651" lon="-1.58651">
        <ele>38</ele>
        <time>2024-02-05T09:49:37Z</time>
      </trkpt>
      <trkpt lat="47.36506" lon="-1.58636">
        <ele>38</ele>
        <time>2024-02-05T09:49:52Z</time>
      </trkpt>
      <trkpt lat="47.36494" lon="-1.58612">
        <ele>38</ele>
        <time>2024-02-05T09:50:19Z</time>
      </trkpt>
      <trkpt lat="47.36485" lon="-1.58587">
        <ele>37</ele>
        <time>2024-02-05T09:50:44Z</time>
      </trkpt>
      <trkpt lat="47.36474" lon="-1.58572">
        <ele>37</ele>
        <time>2024-02-05T09:51:04Z</time>
      </trkpt>
      <trkpt lat="47.36411" lon="-1.58444">
        <ele>33</ele>
        <time>2024-02-05T09:53:27Z</time>
      </trkpt>
      <trkpt lat="47.36388" lon="-1.58404">
        <ele>32</ele>
        <time>2024-02-05T09:54:15Z</time>
      </trkpt>
      <trkpt lat="47.36365" lon="-1.58345">
        <ele>32</ele>
        <time>2024-02-05T09:55:16Z</time>
      </trkpt>
      <trkpt lat="47.36334" lon="-1.58251">
        <ele>32</ele>
        <time>2024-02-05T09:56:51Z</time>
      </trkpt>
      <trkpt lat="47.36314" lon="-1.58252">
        <ele>32</ele>
        <time>2024-02-05T09:57:18Z</time>
      </trkpt>
      <trkpt lat="47.36236" lon="-1.58281">
        <ele>31</ele>
        <time>2024-02-05T09:59:05Z</time>
      </trkpt>
      <trkpt lat="47.36203" lon="-1.58244">
        <ele>29</ele>
        <time>2024-02-05T10:00:00Z</time>
      </trkpt>
      <trkpt lat="47.36177" lon="-1.58206">
        <ele>27</ele>
        <time>2024-02-05T10:00:49Z</time>
      </trkpt>
      <trkpt lat="47.36097" lon="-1.58146">
        <ele>22</ele>
        <time>2024-02-05T10:02:49Z</time>
      </trkpt>
      <trkpt lat="47.36102" lon="-1.58133">
        <ele>23</ele>
        <time>2024-02-05T10:03:02Z</time>
      </trkpt>
      <trkpt lat="47.36083" lon="-1.58098">
        <ele>24</ele>
        <time>2024-02-05T10:03:43Z</time>
      </trkpt>
      <trkpt lat="47.36069" lon="-1.58059">
        <ele>24</ele>
        <time>2024-02-05T10:04:23Z</time>
      </trkpt>
      <trkpt lat="47.36021" lon="-1.57899">
        <ele>21</ele>
        <time>2024-02-05T10:07:01Z</time>
      </trkpt>
      <trkpt lat="47.35974" lon="-1.57809">
        <ele>22</ele>
        <time>2024-02-05T10:08:44Z</time>
      </trkpt>
      <trkpt lat="47.3592" lon="-1.5773">
        <ele>26</ele>
        <time>2024-02-05T10:10:25Z</time>
      </trkpt>
      <trkpt lat="47.35837" lon="-1.57671">
        <ele>28</ele>
        <time>2024-02-05T10:12:28Z</time>
      </trkpt>
      <trkpt lat="47.35847" lon="-1.57528">
        <ele>28</ele>
        <time>2024-02-05T10:14:38Z</time>
      </trkpt>
      <trkpt lat="47.3584" lon="-1.57511">
        <ele>28</ele>
        <time>2024-02-05T10:14:56Z</time>
      </trkpt>
      <trkpt lat="47.35729" lon="-1.57549">
        <ele>28</ele>
        <time>2024-02-05T10:17:28Z</time>
      </trkpt>
      <trkpt lat="47.35717" lon="-1.57536">
        <ele>28</ele>
        <time>2024-02-05T10:17:48Z</time>
      </trkpt>
      <trkpt lat="47.3571" lon="-1.57536">
        <ele>28</ele>
        <time>2024-02-05T10:17:57Z</time>
      </trkpt>
      <trkpt lat="47.35678" lon="-1.57515">
        <ele>29</ele>
        <time>2024-02-05T10:18:44Z</time>
      </trkpt>
      <trkpt lat="47.35665" lon="-1.57509">
        <ele>29</ele>
        <time>2024-02-05T10:19:02Z</time>
      </trkpt>
      <trkpt lat="47.35584" lon="-1.57439">
        <ele>24</ele>
        <time>2024-02-05T10:21:07Z</time>
      </trkpt>
      <trkpt lat="47.35561" lon="-1.57425">
        <ele>22</ele>
        <time>2024-02-05T10:21:41Z</time>
      </trkpt>
      <trkpt lat="47.35536" lon="-1.57398">
        <ele>20</ele>
        <time>2024-02-05T10:22:22Z</time>
      </trkpt>
      <trkpt lat="47.35522" lon="-1.57393">
        <ele>19</ele>
        <time>2024-02-05T10:22:41Z</time>
      </trkpt>
      <trkpt lat="47.35498" lon="-1.57377">
        <ele>18</ele>
        <time>2024-02-05T10:23:16Z</time>
      </trkpt>
      <trkpt lat="47.3548" lon="-1.57356">
        <ele>17</ele>
        <time>2024-02-05T10:23:47Z</time>
      </trkpt>
      <trkpt lat="47.35453" lon="-1.57366">
        <ele>17</ele>
        <time>2024-02-05T10:24:24Z</time>
      </trkpt>
      <trkpt lat="47.35441" lon="-1.57363">
        <ele>16</ele>
        <time>2024-02-05T10:24:40Z</time>
      </trkpt>
      <trkpt lat="47.35423" lon="-1.57365">
        <ele>16</ele>
        <time>2024-02-05T10:25:04Z</time>
      </trkpt>
      <trkpt lat="47.35403" lon="-1.57373">
        <ele>15</ele>
        <time>2024-02-05T10:25:32Z</time>
      </trkpt>
      <trkpt lat="47.35386" lon="-1.57385">
        <ele>14</ele>
        <time>2024-02-05T10:25:57Z</time>
      </trkpt>
      <trkpt lat="47.35358" lon="-1.57395">
        <ele>13</ele>
        <time>2024-02-05T10:26:36Z</time>
      </trkpt>
      <trkpt lat="47.35351" lon="-1.57393">
        <ele>13</ele>
        <time>2024-02-05T10:26:45Z</time>
      </trkpt>
      <trkpt lat="47.35332" lon="-1.57398">
        <ele>12</ele>
        <time>2024-02-05T10:27:11Z</time>
      </trkpt>
      <trkpt lat="47.35312" lon="-1.57397">
        <ele>13</ele>
        <time>2024-02-05T10:27:38Z</time>
      </trkpt>
      <trkpt lat="47.35284" lon="-1.57402">
        <ele>13</ele>
        <time>2024-02-05T10:28:15Z</time>
      </trkpt>
      <trkpt lat="47.35255" lon="-1.57404">
        <ele>14</ele>
        <time>2024-02-05T10:28:54Z</time>
      </trkpt>
      <trkpt lat="47.35239" lon="-1.57412">
        <ele>14</ele>
        <time>2024-02-05T10:29:17Z</time>
      </trkpt>
      <trkpt lat="47.35224" lon="-1.57428">
        <ele>14</ele>
        <time>2024-02-05T10:29:41Z</time>
      </trkpt>
      <trkpt lat="47.35213" lon="-1.57435">
        <ele>13</ele>
        <time>2024-02-05T10:29:57Z</time>
      </trkpt>
      <trkpt lat="47.35173" lon="-1.57438">
        <ele>14</ele>
        <time>2024-02-05T10:30:51Z</time>
      </trkpt>
      <trkpt lat="47.35118" lon="-1.57451">
        <ele>17</ele>
        <time>2024-02-05T10:32:05Z</time>
      </trkpt>
      <trkpt lat="47.3511" lon="-1.57457">
        <ele>17</ele>
        <time>2024-02-05T10:32:17Z</time>
      </trkpt>
      <trkpt lat="47.35076" lon="-1.57461">
        <ele>20</ele>
        <time>2024-02-05T10:33:03Z</time>
      </trkpt>
      <trkpt lat="47.35017" lon="-1.57476">
        <ele>28</ele>
        <time>2024-02-05T10:34:22Z</time>
      </trkpt>
      <trkpt lat="47.34991" lon="-1.57495">
        <ele>31</ele>
        <time>2024-02-05T10:35:01Z</time>
      </trkpt>
      <trkpt lat="47.34981" lon="-1.57505">
        <ele>32</ele>
        <time>2024-02-05T10:35:17Z</time>
      </trkpt>
      <trkpt lat="47.34966" lon="-1.57522">
        <ele>34</ele>
        <time>2024-02-05T10:35:43Z</time>
      </trkpt>
      <trkpt lat="47.34932" lon="-1.57569">
        <ele>36</ele>
        <time>2024-02-05T10:36:45Z</time>
      </trkpt>
      <trkpt lat="47.34906" lon="-1.57609">
        <ele>37</ele>
        <time>2024-02-05T10:37:35Z</time>
      </trkpt>
      <trkpt lat="47.34899" lon="-1.57625">
        <ele>37</ele>
        <time>2024-02-05T10:37:52Z</time>
      </trkpt>
      <trkpt lat="47.34859" lon="-1.57686">
        <ele>37</ele>
        <time>2024-02-05T10:39:09Z</time>
      </trkpt>
      <trkpt lat="47.34846" lon="-1.57696">
        <ele>38</ele>
        <time>2024-02-05T10:39:28Z</time>
      </trkpt>
      <trkpt lat="47.34826" lon="-1.5773">
        <ele>39</ele>
        <time>2024-02-05T10:40:09Z</time>
      </trkpt>
      <trkpt lat="47.34805" lon="-1.57757">
        <ele>39</ele>
        <time>2024-02-05T10:40:46Z</time>
      </trkpt>
      <trkpt lat="47.34764" lon="-1.57825">
        <ele>41</ele>
        <time>2024-02-05T10:42:09Z</time>
      </trkpt>
      <trkpt lat="47.34754" lon="-1.57834">
        <ele>42</ele>
        <time>2024-02-05T10:42:24Z</time>
      </trkpt>
      <trkpt lat="47.34726" lon="-1.57879">
        <ele>42</ele>
        <time>2024-02-05T10:43:19Z</time>
      </trkpt>
      <trkpt lat="47.34716" lon="-1.5789">
        <ele>42</ele>
        <time>2024-02-05T10:43:36Z</time>
      </trkpt>
      <trkpt lat="47.34701" lon="-1.57918">
        <ele>41</ele>
        <time>2024-02-05T10:44:08Z</time>
      </trkpt>
      <trkpt lat="47.34655" lon="-1.57977">
        <ele>43</ele>
        <time>2024-02-05T10:45:30Z</time>
      </trkpt>
      <trkpt lat="47.34651" lon="-1.57987">
        <ele>43</ele>
        <time>2024-02-05T10:45:40Z</time>
      </trkpt>
      <trkpt lat="47.34649" lon="-1.57987">
        <ele>43</ele>
        <time>2024-02-05T10:45:43Z</time>
      </trkpt>
      <trkpt lat="47.34638" lon="-1.58027">
        <ele>43</ele>
        <time>2024-02-05T10:46:22Z</time>
      </trkpt>
      <trkpt lat="47.34613" lon="-1.58096">
        <ele>43</ele>
        <time>2024-02-05T10:47:33Z</time>
      </trkpt>
      <trkpt lat="47.34612" lon="-1.58113">
        <ele>44</ele>
        <time>2024-02-05T10:47:48Z</time>
      </trkpt>
      <trkpt lat="47.34615" lon="-1.58119">
        <ele>44</ele>
        <time>2024-02-05T10:47:55Z</time>
      </trkpt>
      <trkpt lat="47.3462" lon="-1.58121">
        <ele>44</ele>
        <time>2024-02-05T10:48:02Z</time>
      </trkpt>
      <trkpt lat="47.34689" lon="-1.58135">
        <ele>42</ele>
        <time>2024-02-05T10:49:35Z</time>
      </trkpt>
      <trkpt lat="47.34695" lon="-1.58139">
        <ele>41</ele>
        <time>2024-02-05T10:49:43Z</time>
      </trkpt>
      <trkpt lat="47.34733" lon="-1.58259">
        <ele>36</ele>
        <time>2024-02-05T10:51:43Z</time>
      </trkpt>
      <trkpt lat="47.34752" lon="-1.5833">
        <ele>35</ele>
        <time>2024-02-05T10:52:52Z</time>
      </trkpt>
      <trkpt lat="47.3476" lon="-1.58352">
        <ele>35</ele>
        <time>2024-02-05T10:53:15Z</time>
      </trkpt>
      <trkpt lat="47.34767" lon="-1.58362">
        <ele>35</ele>
        <time>2024-02-05T10:53:28Z</time>
      </trkpt>
      <trkpt lat="47.34791" lon="-1.58439">
        <ele>33</ele>
        <time>2024-02-05T10:54:44Z</time>
      </trkpt>
      <trkpt lat="47.34801" lon="-1.58453">
        <ele>32</ele>
        <time>2024-02-05T10:55:03Z</time>
      </trkpt>
      <trkpt lat="47.34812" lon="-1.58463">
        <ele>31</ele>
        <time>2024-02-05T10:55:20Z</time>
      </trkpt>
      <trkpt lat="47.34819" lon="-1.58477">
        <ele>31</ele>
        <time>2024-02-05T10:55:36Z</time>
      </trkpt>
      <trkpt lat="47.34832" lon="-1.5849">
        <ele>30</ele>
        <time>2024-02-05T10:55:57Z</time>
      </trkpt>
      <trkpt lat="47.34843" lon="-1.58497">
        <ele>30</ele>
        <time>2024-02-05T10:56:13Z</time>
      </trkpt>
      <trkpt lat="47.3486" lon="-1.58516">
        <ele>30</ele>
        <time>2024-02-05T10:56:41Z</time>
      </trkpt>
      <trkpt lat="47.34863" lon="-1.58524">
        <ele>30</ele>
        <time>2024-02-05T10:56:49Z</time>
      </trkpt>
      <trkpt lat="47.34893" lon="-1.58568">
        <ele>31</ele>
        <time>2024-02-05T10:57:46Z</time>
      </trkpt>
      <trkpt lat="47.34905" lon="-1.58591">
        <ele>31</ele>
        <time>2024-02-05T10:58:12Z</time>
      </trkpt>
      <trkpt lat="47.3492" lon="-1.5861">
        <ele>32</ele>
        <time>2024-02-05T10:58:38Z</time>
      </trkpt>
      <trkpt lat="47.34941" lon="-1.58647">
        <ele>32</ele>
        <time>2024-02-05T10:59:22Z</time>
      </trkpt>
      <trkpt lat="47.34968" lon="-1.58685">
        <ele>33</ele>
        <time>2024-02-05T11:00:12Z</time>
      </trkpt>
      <trkpt lat="47.34981" lon="-1.58708">
        <ele>33</ele>
        <time>2024-02-05T11:00:39Z</time>
      </trkpt>
      <trkpt lat="47.34992" lon="-1.58723">
        <ele>33</ele>
        <time>2024-02-05T11:00:59Z</time>
      </trkpt>
      <trkpt lat="47.35003" lon="-1.58733">
        <ele>33</ele>
        <time>2024-02-05T11:01:16Z</time>
      </trkpt>
      <trkpt lat="47.35011" lon="-1.58735">
        <ele>33</ele>
        <time>2024-02-05T11:01:27Z</time>
      </trkpt>
      <trkpt lat="47.35182" lon="-1.58662">
        <ele>28</ele>
        <time>2024-02-05T11:05:25Z</time>
      </trkpt>
      <trkpt lat="47.35227" lon="-1.58645">
        <ele>27</ele>
        <time>2024-02-05T11:06:27Z</time>
      </trkpt>
      <trkpt lat="47.35272" lon="-1.58622">
        <ele>26</ele>
        <time>2024-02-05T11:07:30Z</time>
      </trkpt>
      <trkpt lat="47.35296" lon="-1.58606">
        <ele>25</ele>
        <time>2024-02-05T11:08:05Z</time>
      </trkpt>
      <trkpt lat="47.35326" lon="-1.58581">
        <ele>24</ele>
        <time>2024-02-05T11:08:51Z</time>
      </trkpt>
      <trkpt lat="47.35343" lon="-1.58566">
        <ele>24</ele>
        <time>2024-02-05T11:09:18Z</time>
      </trkpt>
      <trkpt lat="47.35358" lon="-1.58548">
        <ele>23</ele>
        <time>2024-02-05T11:09:43Z</time>
      </trkpt>
      <trkpt lat="47.3537" lon="-1.58542">
        <ele>22</ele>
        <time>2024-02-05T11:10:00Z</time>
      </trkpt>
      <trkpt lat="47.35393" lon="-1.58523">
        <ele>20</ele>
        <time>2024-02-05T11:10:36Z</time>
      </trkpt>
      <trkpt lat="47.35418" lon="-1.58517">
        <ele>18</ele>
        <time>2024-02-05T11:11:09Z</time>
      </trkpt>
      <trkpt lat="47.35431" lon="-1.58524">
        <ele>18</ele>
        <time>2024-02-05T11:11:28Z</time>
      </trkpt>
      <trkpt lat="47.3546" lon="-1.58558">
        <ele>17</ele>
        <time>2024-02-05T11:12:17Z</time>
      </trkpt>
      <trkpt lat="47.35484" lon="-1.5858">
        <ele>17</ele>
        <time>2024-02-05T11:12:55Z</time>
      </trkpt>
      <trkpt lat="47.35497" lon="-1.58588">
        <ele>17</ele>
        <time>2024-02-05T11:13:14Z</time>
      </trkpt>
      <trkpt lat="47.35628" lon="-1.58646">
        <ele>32</ele>
        <time>2024-02-05T11:16:16Z</time>
      </trkpt>
      <trkpt lat="47.35644" lon="-1.58656">
        <ele>32</ele>
        <time>2024-02-05T11:16:39Z</time>
      </trkpt>
      <trkpt lat="47.35647" lon="-1.58667">
        <ele>33</ele>
        <time>2024-02-05T11:16:50Z</time>
      </trkpt>
      <trkpt lat="47.3564" lon="-1.58699">
        <ele>32</ele>
        <time>2024-02-05T11:17:21Z</time>
      </trkpt>
      <trkpt lat="47.35627" lon="-1.588">
        <ele>32</ele>
        <time>2024-02-05T11:18:53Z</time>
      </trkpt>
      <trkpt lat="47.35632" lon="-1.589">
        <ele>31</ele>
        <time>2024-02-05T11:20:24Z</time>
      </trkpt>
      <trkpt lat="47.35637" lon="-1.58916">
        <ele>31</ele>
        <time>2024-02-05T11:20:40Z</time>
      </trkpt>
      <trkpt lat="47.35653" lon="-1.58948">
        <ele>31</ele>
        <time>2024-02-05T11:21:16Z</time>
      </trkpt>
      <trkpt lat="47.35657" lon="-1.58976">
        <ele>31</ele>
        <time>2024-02-05T11:21:42Z</time>
      </trkpt>
      <trkpt lat="47.35653" lon="-1.59016">
        <ele>31</ele>
        <time>2024-02-05T11:22:18Z</time>
      </trkpt>
      <trkpt lat="47.35647" lon="-1.59042">
        <ele>31</ele>
        <time>2024-02-05T11:22:43Z</time>
      </trkpt>
      <trkpt lat="47.35648" lon="-1.59052">
        <ele>31</ele>
        <time>2024-02-05T11:22:52Z</time>
      </trkpt>
      <trkpt lat="47.35652" lon="-1.5906">
        <ele>31</ele>
        <time>2024-02-05T11:23:01Z</time>
      </trkpt>
      <trkpt lat="47.35722" lon="-1.59119">
        <ele>29</ele>
        <time>2024-02-05T11:24:49Z</time>
      </trkpt>
      <trkpt lat="47.35816" lon="-1.59191">
        <ele>29</ele>
        <time>2024-02-05T11:27:10Z</time>
      </trkpt>
      <trkpt lat="47.35842" lon="-1.59208">
        <ele>29</ele>
        <time>2024-02-05T11:27:48Z</time>
      </trkpt>
      <trkpt lat="47.35866" lon="-1.59229">
        <ele>30</ele>
        <time>2024-02-05T11:28:25Z</time>
      </trkpt>
      <trkpt lat="47.35937" lon="-1.5928">
        <ele>33</ele>
        <time>2024-02-05T11:30:11Z</time>
      </trkpt>
      <trkpt lat="47.35973" lon="-1.59315">
        <ele>35</ele>
        <time>2024-02-05T11:31:08Z</time>
      </trkpt>
      <trkpt lat="47.35987" lon="-1.59333">
        <ele>36</ele>
        <time>2024-02-05T11:31:33Z</time>
      </trkpt>
      <trkpt lat="47.35999" lon="-1.59356">
        <ele>37</ele>
        <time>2024-02-05T11:31:59Z</time>
      </trkpt>
      <trkpt lat="47.36006" lon="-1.59398">
        <ele>38</ele>
        <time>2024-02-05T11:32:38Z</time>
      </trkpt>
      <trkpt lat="47.36018" lon="-1.59432">
        <ele>38</ele>
        <time>2024-02-05T11:33:13Z</time>
      </trkpt>
      <trkpt lat="47.36036" lon="-1.59463">
        <ele>39</ele>
        <time>2024-02-05T11:33:50Z</time>
      </trkpt>
      <trkpt lat="47.3606" lon="-1.59495">
        <ele>41</ele>
        <time>2024-02-05T11:34:33Z</time>
      </trkpt>
      <trkpt lat="47.36079" lon="-1.59532">
        <ele>41</ele>
        <time>2024-02-05T11:35:15Z</time>
      </trkpt>
      <trkpt lat="47.3612" lon="-1.59644">
        <ele>43</ele>
        <time>2024-02-05T11:37:10Z</time>
      </trkpt>
      <trkpt lat="47.36141" lon="-1.59696">
        <ele>43</ele>
        <time>2024-02-05T11:38:05Z</time>
      </trkpt>
      <trkpt lat="47.36155" lon="-1.59723">
        <ele>44</ele>
        <time>2024-02-05T11:38:36Z</time>
      </trkpt>
      <trkpt lat="47.36162" lon="-1.59749">
        <ele>45</ele>
        <time>2024-02-05T11:39:01Z</time>
      </trkpt>
      <trkpt lat="47.36161" lon="-1.59758">
        <ele>45</ele>
        <time>2024-02-05T11:39:09Z</time>
      </trkpt>
      <trkpt lat="47.36151" lon="-1.59782">
        <ele>45</ele>
        <time>2024-02-05T11:39:35Z</time>
      </trkpt>
      <trkpt lat="47.36146" lon="-1.59807">
        <ele>46</ele>
        <time>2024-02-05T11:39:58Z</time>
      </trkpt>
      <trkpt lat="47.36112" lon="-1.59905">
        <ele>48</ele>
        <time>2024-02-05T11:41:38Z</time>
      </trkpt>
      <trkpt lat="47.361" lon="-1.59952">
        <ele>49</ele>
        <time>2024-02-05T11:42:23Z</time>
      </trkpt>
      <trkpt lat="47.361" lon="-1.59972">
        <ele>49</ele>
        <time>2024-02-05T11:42:41Z</time>
      </trkpt>
      <trkpt lat="47.3609" lon="-1.59987">
        <ele>50</ele>
        <time>2024-02-05T11:43:00Z</time>
      </trkpt>
      <trkpt lat="47.36085" lon="-1.60004">
        <ele>50</ele>
        <time>2024-02-05T11:43:17Z</time>
      </trkpt>
      <trkpt lat="47.3609" lon="-1.60087">
        <ele>49</ele>
        <time>2024-02-05T11:44:32Z</time>
      </trkpt>
      <trkpt lat="47.36095" lon="-1.60117">
        <ele>49</ele>
        <time>2024-02-05T11:45:00Z</time>
      </trkpt>
      <trkpt lat="47.36102" lon="-1.6014">
        <ele>49</ele>
        <time>2024-02-05T11:45:23Z</time>
      </trkpt>
      <trkpt lat="47.36108" lon="-1.60142">
        <ele>48</ele>
        <time>2024-02-05T11:45:31Z</time>
      </trkpt>
      <trkpt lat="47.3618" lon="-1.60141">
        <ele>47</ele>
        <time>2024-02-05T11:47:07Z</time>
      </trkpt>
      <trkpt lat="47.36183" lon="-1.60143">
        <ele>47</ele>
        <time>2024-02-05T11:47:12Z</time>
      </trkpt>
      <trkpt lat="47.3619" lon="-1.60279">
        <ele>45</ele>
        <time>2024-02-05T11:49:15Z</time>
      </trkpt>
      <trkpt lat="47.36204" lon="-1.60295">
        <ele>43</ele>
        <time>2024-02-05T11:49:39Z</time>
      </trkpt>
      <trkpt lat="47.3621" lon="-1.60297">
        <ele>43</ele>
        <time>2024-02-05T11:49:47Z</time>
      </trkpt>
      <trkpt lat="47.36243" lon="-1.60297">
        <ele>41</ele>
        <time>2024-02-05T11:50:31Z</time>
      </trkpt>
      <trkpt lat="47.36254" lon="-1.60317">
        <ele>40</ele>
        <time>2024-02-05T11:50:54Z</time>
      </trkpt>
      <trkpt lat="47.36251" lon="-1.60334">
        <ele>40</ele>
        <time>2024-02-05T11:51:10Z</time>
      </trkpt>
      <trkpt lat="47.36258" lon="-1.60388">
        <ele>38</ele>
        <time>2024-02-05T11:52:00Z</time>
      </trkpt>
      <trkpt lat="47.36276" lon="-1.60475">
        <ele>35</ele>
        <time>2024-02-05T11:53:22Z</time>
      </trkpt>
      <trkpt lat="47.36278" lon="-1.60512">
        <ele>34</ele>
        <time>2024-02-05T11:53:56Z</time>
      </trkpt>
      <trkpt lat="47.36283" lon="-1.60517">
        <ele>34</ele>
        <time>2024-02-05T11:54:04Z</time>
      </trkpt>
      <trkpt lat="47.36288" lon="-1.60516">
        <ele>34</ele>
        <time>2024-02-05T11:54:10Z</time>
      </trkpt>
      <trkpt lat="47.36291" lon="-1.60507">
        <ele>34</ele>
        <time>2024-02-05T11:54:19Z</time>
      </trkpt>
      <trkpt lat="47.36293" lon="-1.60491">
        <ele>34</ele>
        <time>2024-02-05T11:54:34Z</time>
      </trkpt>
      <trkpt lat="47.3629" lon="-1.60486">
        <ele>34</ele>
        <time>2024-02-05T11:54:40Z</time>
      </trkpt>
      <trkpt lat="47.36292" lon="-1.60485">
        <ele>34</ele>
        <time>2024-02-05T11:54:43Z</time>
      </trkpt>
    </trkseg>
  </trk>
</gpx>